Time;durP1;ratioP1;P1;durP2;ratioP2;P2;SDS_P1;SDS_P2;PMS_P1;PMS_P2;Temp;Humidity;BMP_temperature;BMP_pressure;BME280_temperature;BME280_humidity;BME280_pressure;Samples;Min_cycle;Max_cycle;Signal;HPM_P1;HPM_P2
2021/07/18 00:01:52;;;;;;;5.63;3.53;;;20.00;72.20;;;;;;5093928;28;20433;-91
2021/07/18 00:04:18;;;;;;;5.47;3.38;;;20.00;72.40;;;;;;5094372;28;20263;-90
2021/07/18 00:06:44;;;;;;;4.28;2.92;;;19.90;72.60;;;;;;5094263;28;20171;-90
2021/07/18 00:09:10;;;;;;;4.57;3.83;;;19.80;72.60;;;;;;5093937;28;20643;-90
2021/07/18 00:11:36;;;;;;;6.78;3.33;;;19.80;73.30;;;;;;5093628;28;20207;-91
2021/07/18 00:14:03;;;;;;;8.02;4.43;;;19.70;73.30;;;;;;5094260;28;20206;-91
2021/07/18 00:16:28;;;;;;;6.70;3.30;;;19.70;73.70;;;;;;5093953;28;20226;-90
2021/07/18 00:18:54;;;;;;;6.27;3.73;;;19.70;73.80;;;;;;5094142;28;20207;-91
2021/07/18 00:21:20;;;;;;;4.80;3.50;;;19.60;74.10;;;;;;5093213;28;20196;-90
2021/07/18 00:23:46;;;;;;;5.10;3.60;;;19.70;73.80;;;;;;5104547;28;20235;-90
2021/07/18 00:26:12;;;;;;;5.37;4.30;;;19.70;73.60;;;;;;5099091;28;20445;-90
2021/07/18 00:28:37;;;;;;;5.70;4.23;;;19.70;74.10;;;;;;5092847;28;20422;-90
2021/07/18 00:31:03;;;;;;;5.70;3.90;;;19.60;74.50;;;;;;5094401;28;20195;-90
2021/07/18 00:33:29;;;;;;;12.63;4.63;;;19.70;74.70;;;;;;5094862;28;20184;-91
2021/07/18 00:35:55;;;;;;;5.60;3.77;;;19.80;74.60;;;;;;5093786;28;20935;-91
2021/07/18 00:38:20;;;;;;;4.07;3.67;;;19.60;74.70;;;;;;5093702;28;20179;-90
2021/07/18 00:40:46;;;;;;;6.80;4.20;;;19.60;74.70;;;;;;5093055;28;20187;-90
2021/07/18 00:43:12;;;;;;;5.07;4.00;;;19.60;74.60;;;;;;5094330;28;20256;-91
2021/07/18 00:45:37;;;;;;;4.93;3.47;;;19.60;74.70;;;;;;5093907;28;20167;-90
2021/07/18 00:48:05;;;;;;;4.47;3.83;;;19.60;74.90;;;;;;5093620;28;20638;-90
2021/07/18 00:50:32;;;;;;;4.50;4.10;;;19.50;75.20;;;;;;5093342;28;20582;-91
2021/07/18 00:52:57;;;;;;;4.40;3.95;;;19.40;75.50;;;;;;5095911;28;20195;-90
2021/07/18 00:55:23;;;;;;;4.30;3.90;;;19.50;75.30;;;;;;5095184;28;20202;-91
2021/07/18 00:57:50;;;;;;;5.53;4.40;;;19.50;75.20;;;;;;5094623;28;20183;-90
2021/07/18 01:00:18;;;;;;;4.75;3.92;;;19.40;75.20;;;;;;5092860;28;20234;-92
2021/07/18 01:02:45;;;;;;;5.25;4.68;;;19.30;75.50;;;;;;5093743;28;20300;-91
2021/07/18 01:05:13;;;;;;;6.35;4.22;;;19.40;75.50;;;;;;5093883;28;20176;-91
2021/07/18 01:07:39;;;;;;;7.95;4.65;;;19.40;75.80;;;;;;5095480;28;20297;-91
2021/07/18 01:10:07;;;;;;;8.25;4.40;;;19.40;75.70;;;;;;5099003;28;20288;-91
2021/07/18 01:12:33;;;;;;;7.05;4.75;;;19.30;75.90;;;;;;5098064;28;20295;-91
2021/07/18 01:14:59;;;;;;;6.80;4.95;;;19.30;76.40;;;;;;5098560;28;20192;-90
2021/07/18 01:17:26;;;;;;;5.03;3.70;;;19.30;76.50;;;;;;5097741;28;20230;-91
2021/07/18 01:19:52;;;;;;;5.88;4.20;;;19.30;76.50;;;;;;5097248;28;20528;-90
2021/07/18 01:22:18;;;;;;;6.17;4.57;;;19.30;76.50;;;;;;5097009;28;20679;-91
2021/07/18 01:24:44;;;;;;;7.00;4.78;;;19.40;76.10;;;;;;5097466;28;20406;-91
2021/07/18 01:27:13;;;;;;;5.50;4.70;;;19.40;76.00;;;;;;5097248;28;20198;-90
2021/07/18 01:29:39;;;;;;;8.18;4.82;;;19.30;76.10;;;;;;5094425;28;20206;-90
2021/07/18 01:32:05;;;;;;;7.80;4.40;;;19.40;75.70;;;;;;5108144;28;20530;-90
2021/07/18 01:34:31;;;;;;;8.70;4.18;;;19.40;75.50;;;;;;5093605;28;20432;-90
2021/07/18 01:36:57;;;;;;;5.30;4.20;;;19.30;76.00;;;;;;5094118;28;20642;-91
2021/07/18 01:39:24;;;;;;;8.73;4.38;;;19.30;76.20;;;;;;5097454;28;20164;-90
2021/07/18 01:41:51;;;;;;;14.05;5.53;;;19.30;76.00;;;;;;5097557;28;20267;-90
2021/07/18 01:44:17;;;;;;;7.22;4.63;;;19.50;75.60;;;;;;5096753;28;20270;-90
2021/07/18 01:46:43;;;;;;;5.50;4.27;;;19.50;75.40;;;;;;5098032;28;20211;-90
2021/07/18 01:49:11;;;;;;;8.00;5.10;;;19.30;76.00;;;;;;5097950;28;20221;-90
2021/07/18 01:51:37;;;;;;;8.88;4.72;;;19.20;76.60;;;;;;5101128;28;20674;-90
2021/07/18 01:54:05;;;;;;;6.03;5.30;;;19.20;76.70;;;;;;5098856;28;20187;-90
2021/07/18 01:56:31;;;;;;;6.07;5.28;;;19.30;76.20;;;;;;5097530;28;20179;-90
2021/07/18 01:58:57;;;;;;;10.83;4.67;;;19.20;76.30;;;;;;5097422;28;20600;-91
2021/07/18 02:01:31;;;;;;;10.80;4.77;;;19.20;76.50;;;;;;5095453;28;20438;-90
2021/07/18 02:03:58;;;;;;;5.30;4.70;;;19.30;76.50;;;;;;5096506;28;20580;-91
2021/07/18 02:06:25;;;;;;;6.05;4.50;;;19.20;76.40;;;;;;5096526;28;20180;-91
2021/07/18 02:08:57;;;;;;;7.20;4.63;;;19.20;76.40;;;;;;5096736;28;20168;-91
2021/07/18 02:11:23;;;;;;;6.65;4.90;;;19.10;77.20;;;;;;5097013;28;20667;-90
2021/07/18 02:13:51;;;;;;;8.85;4.85;;;19.20;76.90;;;;;;5096292;28;20172;-90
2021/07/18 02:16:17;;;;;;;9.82;5.28;;;19.20;76.60;;;;;;5096638;28;20676;-90
2021/07/18 02:18:43;;;;;;;7.50;5.32;;;19.10;77.20;;;;;;5096472;28;20183;-90
2021/07/18 02:21:09;;;;;;;8.77;5.63;;;19.00;77.60;;;;;;5097081;28;20241;-91
2021/07/18 02:23:35;;;;;;;11.77;5.40;;;19.10;77.70;;;;;;5096269;28;20208;-90
2021/07/18 02:26:02;;;;;;;10.90;5.55;;;19.00;77.80;;;;;;5095902;28;20421;-90
2021/07/18 02:28:27;;;;;;;6.82;5.50;;;19.20;77.20;;;;;;5096310;28;20190;-90
2021/07/18 02:30:53;;;;;;;6.53;5.60;;;19.20;76.80;;;;;;5096825;28;20176;-91
2021/07/18 02:33:19;;;;;;;9.33;5.03;;;19.10;77.70;;;;;;5096168;28;20187;-90
2021/07/18 02:35:44;;;;;;;7.47;5.33;;;18.90;78.00;;;;;;5096081;28;20215;-91
2021/07/18 02:38:10;;;;;;;5.63;4.10;;;19.00;78.10;;;;;;5112619;28;20183;-90
2021/07/18 02:40:36;;;;;;;10.60;6.80;;;19.00;78.00;;;;;;5095729;28;20175;-91
2021/07/18 02:43:02;;;;;;;7.93;6.30;;;18.90;78.60;;;;;;5095419;28;20218;-90
2021/07/18 02:45:30;;;;;;;6.67;5.87;;;18.90;78.70;;;;;;5095445;28;20413;-91
2021/07/18 02:47:56;;;;;;;10.00;5.30;;;18.90;78.60;;;;;;5098654;28;20425;-90
2021/07/18 02:50:25;;;;;;;10.30;5.83;;;18.80;79.20;;;;;;5094543;28;20249;-91
2021/07/18 02:52:51;;;;;;;7.78;5.85;;;18.80;79.30;;;;;;5095221;28;20682;-91
2021/07/18 02:55:17;;;;;;;7.40;5.93;;;18.70;79.50;;;;;;5095367;28;20192;-91
2021/07/18 02:57:43;;;;;;;10.40;6.50;;;18.70;79.80;;;;;;5096591;28;20505;-90
2021/07/18 03:00:11;;;;;;;9.40;5.10;;;18.70;79.90;;;;;;5095518;28;20596;-91
2021/07/18 03:02:37;;;;;;;9.80;5.65;;;18.70;80.00;;;;;;5094919;28;20207;-91
2021/07/18 03:05:04;;;;;;;7.97;6.40;;;18.80;80.00;;;;;;5095504;28;20179;-91
2021/07/18 03:07:31;;;;;;;9.40;5.95;;;18.70;79.90;;;;;;5095107;28;20172;-91
2021/07/18 03:09:57;;;;;;;9.27;5.95;;;18.80;80.00;;;;;;5094759;28;20625;-90
2021/07/18 03:12:23;;;;;;;8.97;5.80;;;18.80;79.80;;;;;;5094392;28;20219;-90
2021/07/18 03:14:48;;;;;;;7.63;6.00;;;18.70;79.70;;;;;;5094860;28;20434;-91
2021/07/18 03:17:14;;;;;;;11.30;6.37;;;18.70;79.70;;;;;;5095190;28;20215;-91
2021/07/18 03:19:40;;;;;;;6.73;5.40;;;18.70;80.10;;;;;;5094688;28;20190;-91
2021/07/18 03:22:05;;;;;;;8.57;6.60;;;18.80;79.50;;;;;;5094542;28;20613;-91
2021/07/18 03:24:31;;;;;;;13.57;6.13;;;18.80;79.50;;;;;;5094784;28;20182;-90
2021/07/18 03:26:57;;;;;;;10.07;6.37;;;18.70;79.90;;;;;;5095806;28;20546;-91
2021/07/18 03:29:23;;;;;;;9.87;6.60;;;18.70;79.90;;;;;;5095379;28;20175;-90
2021/07/18 03:31:48;;;;;;;13.30;6.07;;;18.60;80.10;;;;;;5097160;28;21024;-91
2021/07/18 03:34:14;;;;;;;10.20;6.57;;;18.60;80.30;;;;;;5097430;28;20425;-91
2021/07/18 03:36:40;;;;;;;10.33;5.80;;;18.60;80.40;;;;;;5097244;28;20180;-91
2021/07/18 03:39:06;;;;;;;7.30;6.17;;;18.60;80.50;;;;;;5099529;28;20908;-91
2021/07/18 03:41:32;;;;;;;8.05;5.50;;;18.60;80.70;;;;;;5100919;28;20200;-91
2021/07/18 03:43:58;;;;;;;11.20;5.87;;;18.60;80.70;;;;;;5106717;28;20284;-91
2021/07/18 03:46:24;;;;;;;9.47;7.00;;;18.50;80.60;;;;;;5105687;28;20194;-91
2021/07/18 03:48:49;;;;;;;10.47;7.37;;;18.50;80.80;;;;;;5098322;28;20491;-91
2021/07/18 03:51:15;;;;;;;12.83;7.43;;;18.50;81.50;;;;;;5094604;28;20719;-91
2021/07/18 03:53:41;;;;;;;12.03;6.73;;;18.40;81.00;;;;;;5093845;28;20180;-90
2021/07/18 03:56:09;;;;;;;9.67;6.90;;;18.40;81.20;;;;;;5093989;28;20425;-90
2021/07/18 03:58:35;;;;;;;12.68;6.82;;;18.50;81.40;;;;;;5094211;28;20426;-90
2021/07/18 04:01:00;;;;;;;9.20;6.47;;;18.50;81.40;;;;;;5094705;28;20172;-91
2021/07/18 04:03:27;;;;;;;12.50;7.40;;;18.40;81.30;;;;;;5094088;28;20199;-90
2021/07/18 04:05:54;;;;;;;10.40;6.68;;;18.40;81.20;;;;;;5094133;28;20179;-91
2021/07/18 04:08:19;;;;;;;16.10;7.63;;;18.40;81.10;;;;;;5093805;28;20180;-90
2021/07/18 04:10:45;;;;;;;12.40;7.10;;;18.50;81.40;;;;;;5093515;28;20174;-91
2021/07/18 04:13:11;;;;;;;9.30;6.60;;;18.50;81.30;;;;;;5094537;28;20178;-91
2021/07/18 04:15:37;;;;;;;16.23;8.03;;;18.40;81.20;;;;;;5095302;28;20191;-91
2021/07/18 04:18:10;;;;;;;9.18;7.35;;;18.40;81.40;;;;;;5095522;28;20190;-91
2021/07/18 04:20:38;;;;;;;10.30;8.20;;;18.40;81.30;;;;;;5093566;28;20207;-91
2021/07/18 04:23:04;;;;;;;12.80;7.78;;;18.50;81.50;;;;;;5093564;28;20637;-90
2021/07/18 04:25:30;;;;;;;13.77;7.60;;;18.50;81.30;;;;;;5093682;28;20225;-91
2021/07/18 04:27:56;;;;;;;14.40;7.47;;;18.40;81.40;;;;;;5093455;28;20180;-91
2021/07/18 04:30:22;;;;;;;13.93;7.93;;;18.50;81.60;;;;;;5093643;28;20448;-91
2021/07/18 04:32:48;;;;;;;9.77;7.28;;;18.60;81.60;;;;;;5094039;28;20454;-91
2021/07/18 04:35:14;;;;;;;12.03;7.10;;;18.60;81.40;;;;;;5095366;28;20179;-90
2021/07/18 04:37:40;;;;;;;13.20;7.90;;;18.70;81.20;;;;;;5093676;28;20924;-91
2021/07/18 04:40:08;;;;;;;9.60;7.30;;;18.70;81.00;;;;;;5093728;28;20197;-91
2021/07/18 04:42:33;;;;;;;14.43;8.05;;;18.80;80.60;;;;;;5095059;28;20207;-91
2021/07/18 04:44:59;;;;;;;10.10;7.20;;;18.90;80.10;;;;;;5094474;28;20661;-91
2021/07/18 04:47:25;;;;;;;13.13;7.90;;;19.00;80.10;;;;;;5094770;28;20527;-90
2021/07/18 04:49:52;;;;;;;9.73;7.20;;;18.90;79.80;;;;;;5097013;28;20182;-90
2021/07/18 04:52:18;;;;;;;10.35;7.82;;;18.90;80.00;;;;;;5108528;28;20457;-90
2021/07/18 04:54:44;;;;;;;11.70;7.10;;;18.90;80.00;;;;;;5093143;28;20176;-91
2021/07/18 04:57:10;;;;;;;9.73;7.38;;;18.90;80.10;;;;;;5092901;28;20229;-91
2021/07/18 04:59:36;;;;;;;10.47;7.63;;;19.00;80.00;;;;;;5093078;28;20593;-91
2021/07/18 05:02:02;;;;;;;16.47;8.37;;;19.10;79.90;;;;;;5092623;28;20434;-91
2021/07/18 05:04:29;;;;;;;14.68;8.07;;;19.20;79.40;;;;;;5094474;28;20402;-91
2021/07/18 05:06:55;;;;;;;10.15;7.05;;;19.30;79.00;;;;;;5093104;28;20611;-91
2021/07/18 05:09:20;;;;;;;8.70;7.00;;;19.30;78.80;;;;;;5094490;28;20183;-91
2021/07/18 05:11:46;;;;;;;13.83;7.67;;;19.50;77.70;;;;;;5093152;28;20202;-91
2021/07/18 05:14:12;;;;;;;11.03;7.70;;;19.50;77.00;;;;;;5095220;28;20187;-91
2021/07/18 05:16:37;;;;;;;11.90;7.10;;;19.60;76.80;;;;;;5097682;28;20529;-91
2021/07/18 05:19:05;;;;;;;18.83;7.77;;;19.50;77.10;;;;;;5097394;28;20176;-91
2021/07/18 05:21:30;;;;;;;11.32;6.35;;;19.60;76.60;;;;;;5097393;28;20206;-91
2021/07/18 05:23:56;;;;;;;9.70;6.03;;;19.70;76.60;;;;;;5097637;28;20199;-91
2021/07/18 05:26:22;;;;;;;7.60;6.20;;;19.90;76.50;;;;;;5097167;28;20203;-91
2021/07/18 05:28:48;;;;;;;9.03;6.10;;;20.50;76.30;;;;;;5097247;28;20176;-91
2021/07/18 05:31:13;;;;;;;8.63;5.20;;;21.20;73.00;;;;;;5096970;28;20199;-91
2021/07/18 05:33:39;;;;;;;7.50;5.53;;;22.30;69.70;;;;;;5097382;28;20471;-91
2021/07/18 05:36:08;;;;;;;8.60;5.07;;;23.20;66.20;;;;;;5097101;28;20202;-91
2021/07/18 05:38:36;;;;;;;7.13;4.90;;;24.50;62.50;;;;;;5099335;28;20908;-91
2021/07/18 05:41:02;;;;;;;6.07;4.60;;;25.90;58.00;;;;;;5096487;28;20465;-91
2021/07/18 05:43:27;;;;;;;6.10;5.10;;;27.10;54.40;;;;;;5096615;28;20465;-91
2021/07/18 05:45:53;;;;;;;5.00;4.47;;;27.60;51.00;;;;;;5097242;28;20172;-91
2021/07/18 05:48:23;;;;;;;4.50;3.97;;;28.10;49.00;;;;;;5082063;28;20176;-91
2021/07/18 05:50:49;;;;;;;5.10;4.60;;;28.90;47.10;;;;;;5078585;28;20179;-91
2021/07/18 05:53:15;;;;;;;7.13;4.70;;;28.90;45.90;;;;;;5081958;28;20386;-91
2021/07/18 05:55:41;;;;;;;5.20;4.30;;;29.00;45.40;;;;;;5078487;28;20442;-92
2021/07/18 05:58:06;;;;;;;5.20;4.13;;;29.70;43.90;;;;;;5087501;28;20647;-91
2021/07/18 06:00:32;;;;;;;7.53;4.43;;;30.10;42.80;;;;;;5088030;28;20229;-91
2021/07/18 06:02:58;;;;;;;4.17;3.83;;;30.80;41.80;;;;;;5082493;28;20212;-92
2021/07/18 06:05:23;;;;;;;4.67;4.00;;;31.20;40.80;;;;;;5081983;28;20623;-91
2021/07/18 06:07:49;;;;;;;4.60;4.20;;;31.10;40.00;;;;;;5083585;28;20630;-91
2021/07/18 06:10:15;;;;;;;3.97;3.23;;;30.50;41.00;;;;;;5079890;28;20259;-92
2021/07/18 06:12:40;;;;;;;4.20;3.50;;;30.40;41.20;;;;;;5077797;28;20231;-91
2021/07/18 06:15:07;;;;;;;3.20;2.90;;;30.80;40.90;;;;;;5076442;28;21013;-91
2021/07/18 06:17:35;;;;;;;3.80;3.50;;;31.30;40.20;;;;;;5076240;28;20294;-91
2021/07/18 06:20:04;;;;;;;4.00;3.20;;;31.90;38.30;;;;;;5077202;28;20781;-91
2021/07/18 06:22:29;;;;;;;4.30;3.00;;;32.30;37.40;;;;;;5075484;28;20458;-90
2021/07/18 06:24:55;;;;;;;3.70;3.37;;;31.90;37.20;;;;;;5075375;28;20464;-91
2021/07/18 06:27:21;;;;;;;3.43;3.10;;;32.70;36.30;;;;;;5076076;28;20552;-90
2021/07/18 06:29:46;;;;;;;3.23;2.83;;;33.30;34.50;;;;;;5076212;28;20181;-89
2021/07/18 06:32:12;;;;;;;4.07;3.67;;;33.80;33.40;;;;;;5092674;28;20472;-91
2021/07/18 06:34:38;;;;;;;3.33;2.90;;;34.00;33.40;;;;;;5098494;28;20183;-91
2021/07/18 06:37:04;;;;;;;3.50;2.97;;;34.30;32.50;;;;;;5097509;28;20172;-91
2021/07/18 06:39:30;;;;;;;3.37;2.77;;;34.20;32.40;;;;;;5096411;28;20535;-90
2021/07/18 06:41:55;;;;;;;3.03;2.73;;;34.20;32.30;;;;;;5096002;28;20440;-90
2021/07/18 06:44:21;;;;;;;2.90;2.70;;;34.00;32.60;;;;;;5095900;28;20213;-91
2021/07/18 06:46:47;;;;;;;4.03;3.17;;;33.60;33.40;;;;;;5084920;28;20249;-91
2021/07/18 06:49:12;;;;;;;2.53;2.17;;;33.30;33.40;;;;;;5097547;28;20171;-91
2021/07/18 06:51:38;;;;;;;4.07;2.60;;;32.60;33.60;;;;;;5095240;28;20187;-90
2021/07/18 06:54:04;;;;;;;2.70;2.50;;;31.60;35.70;;;;;;5095626;28;20176;-91
2021/07/18 06:56:30;;;;;;;2.40;2.20;;;31.50;36.70;;;;;;5095505;28;20197;-91
2021/07/18 06:58:57;;;;;;;4.33;2.50;;;31.30;37.40;;;;;;5095755;28;20267;-91
2021/07/18 07:01:23;;;;;;;2.30;2.10;;;31.00;38.50;;;;;;5094825;28;20442;-91
2021/07/18 07:03:49;;;;;;;3.43;2.20;;;30.50;39.10;;;;;;5100672;28;20457;-90
2021/07/18 07:06:15;;;;;;;5.93;2.40;;;29.60;40.40;;;;;;5104877;28;20483;-91
2021/07/18 07:08:41;;;;;;;4.33;1.90;;;29.10;41.90;;;;;;5095499;28;20417;-91
2021/07/18 07:11:06;;;;;;;3.93;2.47;;;28.80;42.60;;;;;;5075266;28;20196;-90
2021/07/18 07:13:32;;;;;;;4.87;2.60;;;28.20;43.90;;;;;;5093203;28;20270;-91
2021/07/18 07:15:58;;;;;;;2.30;2.10;;;27.30;45.70;;;;;;5091820;28;20192;-91
2021/07/18 07:18:24;;;;;;;3.17;2.87;;;27.10;47.20;;;;;;5095526;28;20176;-91
2021/07/18 07:20:50;;;;;;;4.53;3.60;;;27.10;47.70;;;;;;5094905;28;20175;-91
2021/07/18 07:23:15;;;;;;;2.33;2.13;;;26.90;47.60;;;;;;5095256;28;20804;-90
2021/07/18 07:25:41;;;;;;;2.57;2.23;;;26.70;48.10;;;;;;5095275;28;20170;-90
2021/07/18 07:28:07;;;;;;;3.40;2.33;;;26.30;48.30;;;;;;5095380;28;20649;-91
2021/07/18 07:30:35;;;;;;;2.80;2.23;;;26.40;49.00;;;;;;5097031;28;20395;-90
2021/07/18 07:33:01;;;;;;;2.70;2.00;;;26.30;49.00;;;;;;5099145;28;20192;-90
2021/07/18 07:35:27;;;;;;;3.00;2.20;;;26.10;49.30;;;;;;5094724;28;20443;-91
2021/07/18 07:37:52;;;;;;;1.83;1.60;;;26.00;49.60;;;;;;5095262;28;20417;-90
2021/07/18 07:40:19;;;;;;;3.40;2.17;;;25.70;50.00;;;;;;5094081;28;20172;-90
2021/07/18 07:42:45;;;;;;;2.23;2.03;;;25.60;51.00;;;;;;5095391;28;20751;-90
2021/07/18 07:45:11;;;;;;;1.80;1.70;;;25.10;52.10;;;;;;5095516;28;20410;-90
2021/07/18 07:47:38;;;;;;;2.50;2.27;;;24.90;53.30;;;;;;5094641;28;20643;-90
2021/07/18 07:50:06;;;;;;;1.70;1.60;;;24.60;54.30;;;;;;5095129;28;20414;-90
2021/07/18 07:52:32;;;;;;;5.40;2.40;;;24.30;55.30;;;;;;5093972;28;20463;-90
2021/07/18 07:55:01;;;;;;;1.70;1.60;;;24.20;56.00;;;;;;5094700;28;20422;-90
2021/07/18 07:57:26;;;;;;;5.47;2.13;;;24.10;56.50;;;;;;5094172;28;20428;-91
2021/07/18 07:59:52;;;;;;;2.77;2.00;;;24.10;56.70;;;;;;5094320;28;20496;-90
2021/07/18 08:02:18;;;;;;;3.13;1.97;;;24.20;56.50;;;;;;5093343;28;20195;-90
2021/07/18 08:04:43;;;;;;;2.07;1.70;;;24.20;56.30;;;;;;5094287;28;20176;-90
2021/07/18 08:07:09;;;;;;;2.30;1.83;;;24.30;57.00;;;;;;5094664;28;20174;-90
2021/07/18 08:09:35;;;;;;;3.80;2.10;;;24.30;56.90;;;;;;5095627;28;20241;-90
2021/07/18 08:12:00;;;;;;;7.03;2.40;;;24.20;56.40;;;;;;5113650;28;20221;-90
2021/07/18 08:14:26;;;;;;;3.57;1.80;;;24.50;56.00;;;;;;5097056;28;20710;-90
2021/07/18 08:16:52;;;;;;;2.80;1.97;;;24.50;55.40;;;;;;5099588;28;20197;-90
2021/07/18 08:19:18;;;;;;;1.87;1.70;;;24.50;55.80;;;;;;5097652;28;20924;-90
2021/07/18 08:21:44;;;;;;;3.53;2.20;;;24.50;55.10;;;;;;5097093;28;20437;-91
2021/07/18 08:24:10;;;;;;;3.87;2.00;;;24.50;55.40;;;;;;5098480;28;21000;-91
2021/07/18 08:26:36;;;;;;;2.40;2.00;;;24.60;56.30;;;;;;5100637;28;20201;-91
2021/07/18 08:29:03;;;;;;;3.57;2.23;;;24.60;55.70;;;;;;5106060;28;20420;-91
2021/07/18 08:31:29;;;;;;;2.93;1.73;;;24.50;56.40;;;;;;5098296;28;20441;-91
2021/07/18 08:33:55;;;;;;;2.37;1.83;;;24.60;56.30;;;;;;5096354;28;20429;-91
2021/07/18 08:36:22;;;;;;;3.37;2.10;;;24.40;56.80;;;;;;5094046;28;20506;-91
2021/07/18 08:38:48;;;;;;;1.83;1.73;;;24.20;57.10;;;;;;5095469;28;20927;-90
2021/07/18 08:41:14;;;;;;;2.93;2.10;;;24.40;57.20;;;;;;5093660;28;20442;-90
2021/07/18 08:43:40;;;;;;;3.37;2.87;;;24.60;56.10;;;;;;5093803;28;20458;-90
2021/07/18 08:46:06;;;;;;;2.23;2.03;;;24.50;56.60;;;;;;5093961;28;20540;-91
2021/07/18 08:48:32;;;;;;;2.90;2.30;;;24.40;56.70;;;;;;5093111;28;20183;-90
2021/07/18 08:50:58;;;;;;;2.30;2.10;;;24.50;57.20;;;;;;5093680;28;20175;-90
2021/07/18 08:53:28;;;;;;;5.33;2.13;;;24.10;57.70;;;;;;5093793;28;20549;-90
2021/07/18 08:55:55;;;;;;;3.23;2.93;;;24.20;57.20;;;;;;5094463;28;20418;-90
2021/07/18 08:58:21;;;;;;;2.30;2.10;;;24.50;56.60;;;;;;5095099;28;20414;-90
2021/07/18 09:00:47;;;;;;;3.60;2.40;;;24.60;55.90;;;;;;5093484;28;20786;-90
2021/07/18 09:03:16;;;;;;;5.73;2.20;;;24.60;55.70;;;;;;5093935;28;20457;-91
2021/07/18 09:05:44;;;;;;;3.63;2.20;;;24.60;55.60;;;;;;5094603;28;20822;-90
2021/07/18 09:08:18;;;;;;;2.97;2.10;;;24.80;55.70;;;;;;5094861;28;20810;-90
2021/07/18 09:10:47;;;;;;;2.53;2.20;;;24.80;55.00;;;;;;5093898;28;20438;-91
2021/07/18 09:13:17;;;;;;;2.47;2.27;;;25.00;55.10;;;;;;5094117;28;20422;-91
2021/07/18 09:15:50;;;;;;;2.70;2.50;;;25.10;55.50;;;;;;5093345;28;20452;-90
2021/07/18 09:18:21;;;;;;;2.60;2.40;;;24.90;55.20;;;;;;5103772;28;20457;-91
2021/07/18 09:20:50;;;;;;;3.20;2.10;;;24.80;55.50;;;;;;5095460;28;20471;-91
2021/07/18 09:23:25;;;;;;;2.50;2.30;;;25.00;55.60;;;;;;5094007;28;20473;-91
2021/07/18 09:25:52;;;;;;;3.03;2.73;;;24.80;56.10;;;;;;5098913;28;20412;-91
2021/07/18 09:28:22;;;;;;;5.47;3.40;;;24.70;56.10;;;;;;5094573;28;20475;-91
2021/07/18 09:30:50;;;;;;;4.37;2.67;;;24.90;54.60;;;;;;5094094;28;20410;-91
2021/07/18 09:33:28;;;;;;;3.37;2.33;;;25.10;54.30;;;;;;5094701;28;20479;-91
2021/07/18 09:36:11;;;;;;;2.43;2.30;;;25.20;54.00;;;;;;5094030;28;20920;-91
2021/07/18 09:38:37;;;;;;;3.53;2.60;;;25.20;54.80;;;;;;5094745;28;20421;-91
2021/07/18 09:41:03;;;;;;;4.80;2.93;;;25.10;55.10;;;;;;5093815;28;20499;-90
2021/07/18 09:43:30;;;;;;;3.33;3.00;;;25.10;55.40;;;;;;5095140;28;20462;-91
2021/07/18 09:46:08;;;;;;;4.53;3.10;;;25.10;55.70;;;;;;5094516;28;20459;-91
2021/07/18 09:48:36;;;;;;;4.20;3.10;;;25.20;54.60;;;;;;5093828;28;20414;-91
2021/07/18 09:51:14;;;;;;;3.83;2.67;;;25.30;54.30;;;;;;5093418;28;20471;-91
2021/07/18 09:53:43;;;;;;;5.23;3.30;;;25.30;55.10;;;;;;5094055;28;20432;-91
2021/07/18 09:56:20;;;;;;;3.00;2.80;;;25.30;56.10;;;;;;5093536;28;20981;-91
2021/07/18 09:58:57;;;;;;;3.93;3.37;;;25.20;56.60;;;;;;5094283;28;20417;-91
2021/07/18 10:01:23;;;;;;;6.57;3.43;;;25.20;56.50;;;;;;5098075;28;20445;-91
2021/07/18 10:03:51;;;;;;;7.23;3.30;;;25.00;57.20;;;;;;5098909;28;20457;-91
2021/07/18 10:06:19;;;;;;;5.40;3.40;;;25.20;57.20;;;;;;5098011;28;20417;-91
2021/07/18 10:08:58;;;;;;;5.93;3.67;;;25.10;57.60;;;;;;5099355;28;20516;-91
2021/07/18 10:11:26;;;;;;;5.57;4.03;;;25.10;57.90;;;;;;5096890;28;20442;-91
2021/07/18 10:13:54;;;;;;;5.57;3.50;;;25.10;57.90;;;;;;5097362;28;20513;-91
2021/07/18 10:16:22;;;;;;;6.73;4.17;;;25.20;57.60;;;;;;5097194;28;20441;-91
2021/07/18 10:18:49;;;;;;;5.50;4.63;;;25.20;57.90;;;;;;5097110;28;20425;-91
2021/07/18 10:21:18;;;;;;;5.10;4.10;;;25.10;57.80;;;;;;5096649;28;20448;-91
2021/07/18 10:23:46;;;;;;;7.00;4.40;;;25.20;58.00;;;;;;5100509;28;20964;-91
2021/07/18 10:26:13;;;;;;;5.47;4.30;;;25.20;58.40;;;;;;5110229;28;20413;-91
2021/07/18 10:28:40;;;;;;;6.20;4.50;;;25.20;58.50;;;;;;5099087;28;20496;-91
2021/07/18 10:31:15;;;;;;;6.57;4.70;;;25.10;59.10;;;;;;5099623;28;20437;-91
2021/07/18 10:33:45;;;;;;;8.70;4.60;;;25.00;59.60;;;;;;5100996;28;20425;-91
2021/07/18 10:36:12;;;;;;;9.83;5.43;;;25.00;59.80;;;;;;5100530;28;20413;-90
2021/07/18 10:38:38;;;;;;;10.03;4.70;;;25.20;58.30;;;;;;5101072;28;20422;-91
2021/07/18 10:41:04;;;;;;;9.00;5.47;;;25.30;59.00;;;;;;5101525;28;20449;-91
2021/07/18 10:43:48;;;;;;;12.37;5.40;;;25.30;58.80;;;;;;5102422;28;20214;-91
2021/07/18 10:46:57;;;;;;;9.03;4.57;;;25.20;59.10;;;;;;5102757;28;20420;-92
2021/07/18 10:49:53;;;;;;;6.90;4.30;;;25.40;59.20;;;;;;5102432;28;20420;-91
2021/07/18 10:52:23;;;;;;;5.07;4.33;;;25.40;59.40;;;;;;5082262;28;20437;-91
2021/07/18 10:54:49;;;;;;;8.00;5.47;;;25.60;59.40;;;;;;5096152;28;20410;-91
2021/07/18 10:57:30;;;;;;;6.60;5.57;;;25.50;58.70;;;;;;5096814;28;20410;-91
2021/07/18 11:00:17;;;;;;;10.00;5.07;;;25.60;58.30;;;;;;5097247;28;20418;-91
2021/07/18 11:02:42;;;;;;;7.60;5.40;;;25.60;58.70;;;;;;5096433;28;20462;-90
2021/07/18 11:05:15;;;;;;;5.07;4.57;;;25.60;59.10;;;;;;5094635;28;20827;-91
2021/07/18 11:07:42;;;;;;;7.20;4.90;;;25.60;59.10;;;;;;5094904;28;20607;-90
2021/07/18 11:10:14;;;;;;;7.40;4.50;;;25.60;59.00;;;;;;5094682;28;20414;-91
2021/07/18 11:13:07;;;;;;;5.30;4.70;;;25.70;58.90;;;;;;5094943;28;20484;-91
2021/07/18 11:15:36;;;;;;;6.03;5.27;;;25.70;58.70;;;;;;5096851;28;20442;-91
2021/07/18 11:18:08;;;;;;;9.33;4.07;;;25.80;58.50;;;;;;5095351;28;20454;-90
2021/07/18 11:20:52;;;;;;;6.30;3.43;;;25.70;58.50;;;;;;5097856;28;20424;-91
2021/07/18 11:23:19;;;;;;;10.67;3.80;;;25.80;59.00;;;;;;5095560;28;20460;-91
2021/07/18 11:25:48;;;;;;;5.23;4.30;;;25.90;59.00;;;;;;5095757;28;20789;-91
2021/07/18 11:28:39;;;;;;;5.10;3.63;;;25.90;59.00;;;;;;5095370;28;20497;-91
2021/07/18 11:31:13;;;;;;;9.53;5.27;;;25.90;58.20;;;;;;5095317;28;20444;-91
2021/07/18 11:33:45;;;;;;;8.73;3.70;;;25.90;58.00;;;;;;5105557;28;20432;-91
2021/07/18 11:36:12;;;;;;;5.87;3.87;;;26.20;57.60;;;;;;5095867;28;20432;-91
2021/07/18 11:38:38;;;;;;;5.77;3.93;;;26.20;57.90;;;;;;5095556;28;20929;-90
2021/07/18 11:41:30;;;;;;;8.63;4.90;;;26.20;57.10;;;;;;5094369;28;20533;-91
2021/07/18 11:43:58;;;;;;;4.90;3.20;;;26.10;57.00;;;;;;5095653;28;20202;-90
2021/07/18 11:46:28;;;;;;;4.57;2.90;;;26.20;56.10;;;;;;5095055;28;20407;-91
2021/07/18 11:48:53;;;;;;;4.47;3.17;;;26.20;55.90;;;;;;5095745;28;20467;-91
2021/07/18 11:51:22;;;;;;;4.60;3.73;;;26.20;55.60;;;;;;5095125;28;20434;-90
2021/07/18 11:53:50;;;;;;;5.97;3.30;;;26.30;56.00;;;;;;5095424;28;20432;-91
2021/07/18 11:56:23;;;;;;;4.87;2.93;;;26.10;55.70;;;;;;5095660;28;20471;-91
2021/07/18 11:58:57;;;;;;;3.67;3.10;;;26.10;55.30;;;;;;5095241;28;20426;-91
2021/07/18 12:01:25;;;;;;;8.50;4.07;;;26.00;55.50;;;;;;5079644;28;20894;-90
2021/07/18 12:03:51;;;;;;;4.67;3.13;;;25.90;55.60;;;;;;5075202;28;20458;-91
2021/07/18 12:06:21;;;;;;;7.80;3.63;;;25.90;55.90;;;;;;5074244;28;20476;-91
2021/07/18 12:08:47;;;;;;;5.00;3.80;;;25.90;56.10;;;;;;5075003;28;20477;-91
2021/07/18 12:11:13;;;;;;;6.93;2.87;;;25.90;55.80;;;;;;5073857;28;20439;-92
2021/07/18 12:13:47;;;;;;;8.80;5.70;;;25.90;56.00;;;;;;5074627;28;20183;-92
2021/07/18 12:16:14;;;;;;;5.37;3.77;;;25.90;55.00;;;;;;5074997;28;20449;-89
2021/07/18 12:18:47;;;;;;;3.40;3.10;;;25.90;54.60;;;;;;5079340;28;20422;-92
2021/07/18 12:21:14;;;;;;;4.50;3.50;;;26.00;54.50;;;;;;5073772;28;20495;-91
2021/07/18 12:23:40;;;;;;;3.90;3.30;;;26.00;54.40;;;;;;5073570;28;20458;-91
2021/07/18 12:26:06;;;;;;;5.60;3.00;;;26.00;54.60;;;;;;5075275;28;20418;-92
2021/07/18 12:28:32;;;;;;;6.87;3.30;;;26.10;54.40;;;;;;5074142;28;20509;-92
2021/07/18 12:31:05;;;;;;;5.93;3.03;;;26.20;53.30;;;;;;5074086;28;20215;-92
2021/07/18 12:33:32;;;;;;;4.90;3.40;;;26.00;52.90;;;;;;5074547;28;20180;-92
2021/07/18 12:36:04;;;;;;;6.30;3.20;;;25.90;52.50;;;;;;5073917;28;20423;-91
2021/07/18 12:38:30;;;;;;;5.13;2.63;;;26.00;52.70;;;;;;5073521;28;20426;-91
2021/07/18 12:41:01;;;;;;;3.70;3.40;;;26.10;52.40;;;;;;5076068;28;20419;-91
2021/07/18 12:43:27;;;;;;;4.40;2.67;;;26.10;52.20;;;;;;5078430;28;20212;-91
2021/07/18 12:45:53;;;;;;;4.43;2.90;;;26.30;52.30;;;;;;5078253;28;20403;-92
2021/07/18 12:48:25;;;;;;;4.03;2.67;;;26.20;51.90;;;;;;5078879;28;20511;-92